Apple Springs, Texas
Current Conditions -  °F | °C
As of 8:53 AM on Saturday 22 Nov 2014 (Local Time) from KLFK Reporting Station
Clear Clear  
Wind Chill: 59°   Ceiling: Unl
Heat Index: 59°   Visibility: 10mi
Dew Point: 53°   Wind: 10mph
Humidity: 81%   Direction: 120°ESE
Pressure: 30.1"   Gusts: NA
Location:  31.22°N, 94.97°W
Report Text: KLFK 221453Z AUTO 12009KT 10SM CLR 15/12 A3010 RMK AO2 SLP191 T01500117 56007
Loading
Personal Weather Stations






























Interactive Weather Map New forecast layout! Learn more

10-Day Weather Forecast

Advertisements
Track Severe Weather on mobile